Time;durP1;ratioP1;P1;durP2;ratioP2;P2;SDS_P1;SDS_P2;PMS_P1;PMS_P2;Temp;Humidity;BMP_temperature;BMP_pressure;BME280_temperature;BME280_humidity;BME280_pressure;Samples;Min_cycle;Max_cycle;Signal;HPM_P1;HPM_P2
2021/03/18 00:02:09;;;;;;;;;;;;;;;0.50;83.90;99293.30;1736559;81;20222;-72
2021/03/18 00:04:37;;;;;;;;;;;;;;;0.51;83.92;99288.02;1779198;80;21200;-72
2021/03/18 00:07:04;;;;;;;;;;;;;;;0.52;83.95;99290.98;1777304;79;20222;-73
2021/03/18 00:09:31;;;;;;;;;;;;;;;0.55;83.95;99293.88;1774725;79;22068;-71
2021/03/18 00:11:59;;;;;;;;;;;;;;;0.53;83.94;99289.23;1743722;81;20229;-72
2021/03/18 00:14:26;;;;;;;;;;;;;;;0.54;83.92;99290.90;1739131;81;20212;-72
2021/03/18 00:16:53;;;;;;;;;;;;;;;0.53;83.94;99288.77;1763766;80;20310;-72
2021/03/18 00:19:21;;;;;;;;;;;;;;;0.54;83.93;99290.44;1764034;80;20454;-72
2021/03/18 00:21:50;;;;;;;;;;;;;;;0.52;83.92;99290.16;1761309;80;20482;-72
2021/03/18 00:24:18;;;;;;;;;;;;;;;0.52;83.93;99283.66;1763977;80;20347;-72
2021/03/18 00:26:45;;;;;;;;;;;;;;;0.50;83.90;99290.24;1764053;80;20233;-72
2021/03/18 00:29:12;;;;;;;;;;;;;;;0.49;83.91;99291.17;1767144;80;20310;-72
2021/03/18 00:31:41;;;;;;;;;;;;;;;0.46;83.90;99290.48;1769970;80;20264;-73
2021/03/18 00:34:09;;;;;;;;;;;;;;;0.46;83.91;99293.91;1738070;80;22360;-72
2021/03/18 00:36:36;;;;;;;;;;;;;;;0.42;83.93;99280.73;1768781;80;20237;-71
2021/03/18 00:39:06;;;;;;;;;;;;;;;0.42;83.96;99288.52;1772699;80;20208;-71
2021/03/18 00:41:35;;;;;;;;;;;;;;;0.43;83.95;99290.20;1766454;80;20367;-72
2021/03/18 00:44:04;;;;;;;;;;;;;;;0.44;83.96;99286.67;1773500;80;20226;-71
2021/03/18 00:46:32;;;;;;;;;;;;;;;0.44;83.98;99289.27;1763834;81;21899;-71
2021/03/18 00:49:00;;;;;;;;;;;;;;;0.43;83.99;99288.90;1771795;80;20257;-71
2021/03/18 00:51:28;;;;;;;;;;;;;;;0.44;83.99;99286.67;1773576;80;20210;-71
2021/03/18 00:53:57;;;;;;;;;;;;;;;0.46;84.00;99290.48;1763036;80;21472;-71
2021/03/18 00:56:24;;;;;;;;;;;;;;;0.46;84.01;99294.38;1763540;81;20219;-71
2021/03/18 00:58:53;;;;;;;;;;;;;;;0.46;84.03;99293.08;1763480;81;22849;-71
2021/03/18 01:01:23;;;;;;;;;;;;;;;0.47;84.04;99290.86;1718630;80;20723;-72
2021/03/18 01:03:53;;;;;;;;;;;;;;;0.47;84.04;99287.80;1758597;80;20277;-71
2021/03/18 01:06:26;;;;;;;;;;;;;;;0.47;84.04;99289.55;1796426;79;21417;-71
2021/03/18 01:08:55;;;;;;;;;;;;;;;0.46;84.06;99290.02;1747885;80;20207;-71
2021/03/18 01:11:28;;;;;;;;;;;;;;;0.47;84.08;99288.25;1768664;80;22126;-70
2021/03/18 01:13:57;;;;;;;;;;;;;;;0.49;84.09;99290.33;1753183;80;21062;-69
2021/03/18 01:16:27;;;;;;;;;;;;;;;0.50;84.08;99290.24;1780410;79;20209;-68
2021/03/18 01:19:00;;;;;;;;;;;;;;;0.52;84.10;99292.75;1756696;80;20305;-68
2021/03/18 01:21:31;;;;;;;;;;;;;;;0.50;84.09;99285.51;1775345;80;20242;-68
2021/03/18 01:24:00;;;;;;;;;;;;;;;0.47;84.09;99285.20;1749043;80;22111;-68
2021/03/18 01:26:27;;;;;;;;;;;;;;;0.46;84.11;99290.02;1761362;80;20300;-68
2021/03/18 01:28:54;;;;;;;;;;;;;;;0.44;84.12;99286.67;1765740;80;20271;-68
2021/03/18 01:31:22;;;;;;;;;;;;;;;0.44;84.14;99287.97;1771245;80;20463;-69
2021/03/18 01:33:50;;;;;;;;;;;;;;;0.43;84.17;99288.90;1783297;80;20216;-68
2021/03/18 01:36:17;;;;;;;;;;;;;;;0.43;84.16;99286.30;1757053;80;21906;-68
2021/03/18 01:38:46;;;;;;;;;;;;;;;0.43;84.17;99297.99;1779510;80;20346;-69
2021/03/18 01:41:17;;;;;;;;;;;;;;;0.44;84.19;99294.47;1762626;80;20220;-69
2021/03/18 01:43:45;;;;;;;;;;;;;;;0.44;84.19;99302.27;1760708;80;20305;-69
2021/03/18 01:46:12;;;;;;;;;;;;;;;0.45;84.19;99296.14;1757804;80;20236;-69
2021/03/18 01:48:41;;;;;;;;;;;;;;;0.47;84.18;99299.48;1762067;80;21910;-69
2021/03/18 01:51:08;;;;;;;;;;;;;;;0.46;84.20;99296.52;1762507;80;20219;-69
2021/03/18 01:53:35;;;;;;;;;;;;;;;0.46;84.20;99295.67;1759791;80;20254;-69
2021/03/18 01:56:03;;;;;;;;;;;;;;;0.48;84.19;99296.42;1760484;81;20493;-68
2021/03/18 01:58:31;;;;;;;;;;;;;;;0.47;84.17;99300.78;1760750;81;20280;-67
2021/03/18 02:01:04;;;;;;;;;;;;;;;0.45;84.17;99297.90;1764617;80;21892;-68
2021/03/18 02:03:32;;;;;;;;;;;;;;;0.46;84.18;99299.57;1760926;80;20375;-69
2021/03/18 02:06:00;;;;;;;;;;;;;;;0.45;84.17;99303.09;1763998;80;21270;-69
2021/03/18 02:08:27;;;;;;;;;;;;;;;0.41;84.14;99292.52;1767487;80;20321;-69
2021/03/18 02:10:55;;;;;;;;;;;;;;;0.38;84.16;99293.49;1767923;80;20257;-70
2021/03/18 02:13:22;;;;;;;;;;;;;;;0.40;84.18;99293.44;1739005;81;22066;-70
2021/03/18 02:15:58;;;;;;;;;;;;;;;0.40;84.16;99295.57;1759037;81;20216;-69
2021/03/18 02:18:55;;;;;;;;;;;;;;;0.39;84.17;99300.86;1760834;81;20233;-68
2021/03/18 02:21:39;;;;;;;;;;;;;;;0.37;84.17;99298.31;1767966;80;20528;-69
2021/03/18 02:24:31;;;;;;;;;;;;;;;0.35;84.14;99294.13;1760424;80;20319;-69
2021/03/18 02:27:05;;;;;;;;;;;;;;;0.31;84.17;99297.38;1760084;80;21885;-69
2021/03/18 02:30:10;;;;;;;;;;;;;;;0.32;84.21;99300.34;1753575;80;20228;-69
2021/03/18 02:33:16;;;;;;;;;;;;;;;0.33;84.19;99297.28;1684799;84;20271;-69
2021/03/18 02:35:58;;;;;;;;;;;;;;;0.32;84.19;99296.91;1770012;80;20313;-69
2021/03/18 02:38:32;;;;;;;;;;;;;;;0.34;84.20;99302.84;1764177;80;20217;-69
2021/03/18 02:41:04;;;;;;;;;;;;;;;0.32;84.19;99300.34;1767379;80;22946;-69
2021/03/18 02:43:37;;;;;;;;;;;;;;;0.32;84.21;99298.20;1734929;81;21269;-69
2021/03/18 02:46:04;;;;;;;;;;;;;;;0.33;84.23;99299.42;1759798;80;20221;-68
2021/03/18 02:48:33;;;;;;;;;;;;;;;0.31;84.21;99299.13;1758654;81;21217;-68
2021/03/18 02:51:01;;;;;;;;;;;;;;;0.30;84.28;99303.48;1758501;80;20562;-69
2021/03/18 02:53:31;;;;;;;;;;;;;;;0.31;84.29;99307.76;1760615;81;21905;-69
2021/03/18 02:56:02;;;;;;;;;;;;;;;0.34;84.31;99309.34;1758675;80;21240;-70
2021/03/18 02:58:31;;;;;;;;;;;;;;;0.35;84.32;99309.25;1762584;80;20276;-69
2021/03/18 03:00:59;;;;;;;;;;;;;;;0.38;84.32;99317.33;1760361;80;20507;-70
2021/03/18 03:03:28;;;;;;;;;;;;;;;0.38;84.31;99319.47;1705097;81;20228;-69
2021/03/18 03:05:55;;;;;;;;;;;;;;;0.38;84.34;99315.58;1764128;80;23378;-69
2021/03/18 03:08:22;;;;;;;;;;;;;;;0.39;84.37;99321.17;1761124;80;20827;-70
2021/03/18 03:10:52;;;;;;;;;;;;;;;0.40;84.37;99315.52;1761787;80;20578;-70
2021/03/18 03:13:19;;;;;;;;;;;;;;;0.40;84.34;99324.14;1766949;80;20302;-72
2021/03/18 03:15:49;;;;;;;;;;;;;;;0.40;84.35;99322.01;1717695;82;20249;-69
2021/03/18 03:18:16;;;;;;;;;;;;;;;0.40;84.34;99325.44;1757064;81;22766;-69
2021/03/18 03:20:44;;;;;;;;;;;;;;;0.40;84.35;99331.09;1733825;81;21279;-69
2021/03/18 03:23:12;;;;;;;;;;;;;;;0.41;84.36;99328.41;1750386;80;20271;-70
2021/03/18 03:25:39;;;;;;;;;;;;;;;0.42;84.36;99327.95;1732526;81;20320;-69
2021/03/18 03:28:10;;;;;;;;;;;;;;;0.40;84.36;99328.04;1760756;81;20216;-69
2021/03/18 03:30:38;;;;;;;;;;;;;;;0.42;84.35;99333.14;1771198;80;21904;-70
2021/03/18 03:33:06;;;;;;;;;;;;;;;0.40;84.33;99338.43;1785990;80;20374;-71
2021/03/18 03:35:34;;;;;;;;;;;;;;;0.39;84.37;99330.73;1771893;80;20384;-71
2021/03/18 03:38:02;;;;;;;;;;;;;;;0.38;84.35;99337.65;1762013;80;20306;-70
2021/03/18 03:40:31;;;;;;;;;;;;;;;0.37;84.33;99335.98;1760517;81;20288;-70
2021/03/18 03:42:58;;;;;;;;;;;;;;;0.36;84.34;99335.60;1768340;80;21806;-70
2021/03/18 03:45:25;;;;;;;;;;;;;;;0.37;84.35;99338.58;1773825;80;20658;-71
2021/03/18 03:47:53;;;;;;;;;;;;;;;0.37;84.36;99338.58;1761047;79;20207;-69
2021/03/18 03:50:22;;;;;;;;;;;;;;;0.35;84.31;99341.72;1762099;80;21336;-68
2021/03/18 03:53:19;;;;;;;;;;;;;;;0.35;84.34;99348.67;1760301;81;20208;-70
2021/03/18 03:55:58;;;;;;;;;;;;;;;0.34;84.35;99345.70;1754546;80;22036;-69
2021/03/18 03:58:40;;;;;;;;;;;;;;;0.33;84.35;99343.57;1761875;80;20232;-68
2021/03/18 04:01:11;;;;;;;;;;;;;;;0.33;84.37;99342.27;1762681;80;20220;-70
2021/03/18 04:03:39;;;;;;;;;;;;;;;0.34;84.37;99341.81;1759948;81;21272;-70
2021/03/18 04:06:07;;;;;;;;;;;;;;;0.34;84.35;99348.30;1763111;80;20213;-70
2021/03/18 04:08:36;;;;;;;;;;;;;;;0.34;84.36;99353.03;1771368;80;21911;-70
2021/03/18 04:11:03;;;;;;;;;;;;;;;0.34;84.33;99352.20;1764407;80;20213;-70
2021/03/18 04:13:31;;;;;;;;;;;;;;;0.34;84.34;99356.09;1773006;80;20225;-71
2021/03/18 04:15:59;;;;;;;;;;;;;;;0.35;84.36;99354.70;1731635;80;21253;-71
2021/03/18 04:18:28;;;;;;;;;;;;;;;0.37;84.37;99356.75;1756692;81;20225;-70
2021/03/18 04:20:56;;;;;;;;;;;;;;;0.39;84.35;99362.73;1761509;80;21897;-71
2021/03/18 04:23:23;;;;;;;;;;;;;;;0.40;84.35;99364.87;1763977;80;21142;-71
2021/03/18 04:25:50;;;;;;;;;;;;;;;0.40;84.35;99363.57;1760511;80;20221;-71
2021/03/18 04:28:17;;;;;;;;;;;;;;;0.38;84.33;99364.92;1754644;81;21582;-71
2021/03/18 04:30:44;;;;;;;;;;;;;;;0.38;84.31;99364.92;1769771;80;20233;-72
2021/03/18 04:33:11;;;;;;;;;;;;;;;0.38;84.29;99367.52;1765336;80;22520;-70
2021/03/18 04:35:39;;;;;;;;;;;;;;;0.40;84.28;99373.50;1779392;80;20220;-70
2021/03/18 04:38:06;;;;;;;;;;;;;;;0.38;84.25;99366.22;1762322;80;20411;-70
2021/03/18 04:40:33;;;;;;;;;;;;;;;0.35;84.24;99369.45;1759627;80;20826;-70
2021/03/18 04:43:01;;;;;;;;;;;;;;;0.36;84.23;99373.73;1761771;80;20216;-70
2021/03/18 04:45:28;;;;;;;;;;;;;;;0.34;84.21;99375.11;1775249;80;21897;-70
2021/03/18 04:47:55;;;;;;;;;;;;;;;0.34;84.21;99380.77;1760701;81;20662;-70
2021/03/18 04:50:22;;;;;;;;;;;;;;;0.32;84.21;99386.05;1780316;80;20241;-70
2021/03/18 04:52:50;;;;;;;;;;;;;;;0.30;84.21;99386.60;1760785;81;20249;-70
2021/03/18 04:55:19;;;;;;;;;;;;;;;0.30;84.21;99385.30;1764623;80;20301;-70
2021/03/18 04:57:49;;;;;;;;;;;;;;;0.32;84.22;99391.25;1764281;80;23313;-70
2021/03/18 05:00:18;;;;;;;;;;;;;;;0.34;84.22;99386.80;1763189;81;20403;-70
2021/03/18 05:02:45;;;;;;;;;;;;;;;0.35;84.22;99389.77;1736915;81;20236;-72
2021/03/18 05:05:17;;;;;;;;;;;;;;;0.37;84.21;99399.61;1778732;80;20262;-71
2021/03/18 05:07:45;;;;;;;;;;;;;;;0.35;84.17;99398.03;1775381;80;20242;-70
2021/03/18 05:10:15;;;;;;;;;;;;;;;0.34;84.17;99401.09;1731111;81;23353;-71
2021/03/18 05:12:42;;;;;;;;;;;;;;;0.33;84.13;99402.47;1738906;80;20381;-72
2021/03/18 05:15:12;;;;;;;;;;;;;;;0.34;84.16;99409.34;1721528;82;20255;-74
2021/03/18 05:17:39;;;;;;;;;;;;;;;0.34;84.12;99407.58;1749237;81;21415;-74
2021/03/18 05:20:09;;;;;;;;;;;;;;;0.30;84.06;99416.47;1763855;80;20315;-75
2021/03/18 05:22:36;;;;;;;;;;;;;;;0.27;84.04;99414.01;1767373;80;22178;-73
2021/03/18 05:25:04;;;;;;;;;;;;;;;0.28;84.07;99421.72;1734789;81;20373;-75
2021/03/18 05:27:31;;;;;;;;;;;;;;;0.28;84.09;99416.98;1751221;80;20596;-72
2021/03/18 05:29:59;;;;;;;;;;;;;;;0.31;84.08;99423.34;1743173;80;20718;-75
2021/03/18 05:32:27;;;;;;;;;;;;;;;0.31;84.09;99430.29;1740982;82;20599;-73
2021/03/18 05:34:55;;;;;;;;;;;;;;;0.32;84.11;99428.91;1731683;82;22044;-76
2021/03/18 05:37:23;;;;;;;;;;;;;;;0.32;84.09;99426.31;1764038;80;20390;-70
2021/03/18 05:39:50;;;;;;;;;;;;;;;0.34;84.08;99432.25;1783174;80;20580;-72
2021/03/18 05:42:17;;;;;;;;;;;;;;;0.37;84.09;99428.19;1749550;80;20756;-73
2021/03/18 05:44:45;;;;;;;;;;;;;;;0.42;84.15;99432.70;1781569;79;20501;-72
2021/03/18 05:47:12;;;;;;;;;;;;;;;0.47;84.13;99437.17;1745092;82;22584;-72
2021/03/18 05:49:43;;;;;;;;;;;;;;;0.50;84.12;99436.19;1744168;82;20221;-72
2021/03/18 05:52:10;;;;;;;;;;;;;;;0.52;84.09;99436.94;1720757;82;20229;-73
2021/03/18 05:54:38;;;;;;;;;;;;;;;0.52;84.09;99436.94;1785039;80;20271;-73
2021/03/18 05:57:06;;;;;;;;;;;;;;;0.51;84.06;99442.60;1784357;80;20212;-73
2021/03/18 05:59:33;;;;;;;;;;;;;;;0.51;84.08;99442.60;1780540;79;22633;-72
2021/03/18 06:02:00;;;;;;;;;;;;;;;0.55;84.11;99443.27;1747882;81;20649;-73
2021/03/18 06:04:27;;;;;;;;;;;;;;;0.60;84.15;99446.47;1749314;81;20504;-73
2021/03/18 06:06:56;;;;;;;;;;;;;;;0.66;84.19;99446.13;1778730;80;20975;-73
2021/03/18 06:09:23;;;;;;;;;;;;;;;0.70;84.17;99450.25;1777970;80;20236;-73
2021/03/18 06:11:50;;;;;;;;;;;;;;;0.75;84.16;99451.30;1789050;79;22991;-72
2021/03/18 06:14:17;;;;;;;;;;;;;;;0.81;84.16;99456.17;1778816;80;20227;-72
2021/03/18 06:16:44;;;;;;;;;;;;;;;0.82;84.12;99451.34;1749351;82;20221;-72
2021/03/18 06:19:11;;;;;;;;;;;;;;;0.88;84.16;99451.03;1783149;79;20473;-71
2021/03/18 06:21:54;;;;;;;;;;;;;;;0.94;84.07;99458.48;1736140;81;20223;-71
2021/03/18 06:24:27;;;;;;;;;;;;;;;0.95;84.01;99454.95;1758037;81;22060;-71
2021/03/18 06:26:55;;;;;;;;;;;;;;;0.97;83.97;99458.79;1747602;81;20366;-71
2021/03/18 06:29:33;;;;;;;;;;;;;;;0.96;83.89;99458.39;1758714;81;20259;-71
2021/03/18 06:32:04;;;;;;;;;;;;;;;0.98;83.84;99463.06;1758350;81;20516;-71
2021/03/18 06:34:44;;;;;;;;;;;;;;;1.00;83.76;99469.02;1758320;80;20263;-71
2021/03/18 06:37:34;;;;;;;;;;;;;;;0.99;83.65;99466.87;1758389;81;22131;-72
2021/03/18 06:40:15;;;;;;;;;;;;;;;0.95;83.49;99466.65;1758191;80;20245;-72
2021/03/18 06:42:55;;;;;;;;;;;;;;;0.86;83.34;99473.19;1730827;80;20222;-71
2021/03/18 06:45:30;;;;;;;;;;;;;;;0.80;83.26;99469.63;1754477;81;20470;-71
2021/03/18 06:48:03;;;;;;;;;;;;;;;0.80;83.20;99472.70;1758691;81;20228;-71
2021/03/18 06:50:33;;;;;;;;;;;;;;;0.78;83.20;99471.95;1758803;81;21902;-71
2021/03/18 06:53:01;;;;;;;;;;;;;;;0.79;83.16;99473.16;1756878;80;21067;-71
2021/03/18 06:55:30;;;;;;;;;;;;;;;0.78;83.11;99470.64;1757583;81;20480;-72
2021/03/18 06:58:27;;;;;;;;;;;;;;;0.82;83.17;99477.34;1741571;81;20542;-72
2021/03/18 07:00:59;;;;;;;;;;;;;;;0.91;83.21;99472.11;1752472;82;20216;-71
2021/03/18 07:03:37;;;;;;;;;;;;;;;1.00;83.23;99471.16;1748684;82;22072;-71
2021/03/18 07:06:09;;;;;;;;;;;;;;;1.01;83.11;99466.79;1757941;80;20263;-73
2021/03/18 07:08:38;;;;;;;;;;;;;;;0.96;82.98;99468.32;1752088;80;20241;-71
2021/03/18 07:11:18;;;;;;;;;;;;;;;0.95;82.92;99474.45;1736703;80;20479;-74
2021/03/18 07:13:53;;;;;;;;;;;;;;;1.03;82.98;99468.37;1823417;76;20239;-71
2021/03/18 07:16:20;;;;;;;;;;;;;;;0.99;82.91;99472.08;1790819;77;20239;-71
2021/03/18 07:18:57;;;;;;;;;;;;;;;1.03;82.93;99470.97;1816548;79;22500;-72
2021/03/18 07:21:35;;;;;;;;;;;;;;;1.07;82.91;99476.41;1786179;79;20274;-73
2021/03/18 07:24:03;;;;;;;;;;;;;;;1.10;82.87;99479.29;1803755;79;20212;-73
2021/03/18 07:26:32;;;;;;;;;;;;;;;1.15;82.88;99479.86;1793114;79;20481;-71
2021/03/18 07:29:13;;;;;;;;;;;;;;;1.17;82.77;99479.80;1788670;79;20208;-73
2021/03/18 07:31:40;;;;;;;;;;;;;;;1.19;82.72;99486.59;1809545;79;22063;-72
2021/03/18 07:34:08;;;;;;;;;;;;;;;1.23;82.71;99484.64;1791948;79;20214;-71
2021/03/18 07:36:36;;;;;;;;;;;;;;;1.26;82.67;99481.43;1811785;77;20239;-72
2021/03/18 07:39:05;;;;;;;;;;;;;;;1.23;82.38;99482.05;1794286;79;20247;-72
2021/03/18 07:41:33;;;;;;;;;;;;;;;1.19;82.21;99481.39;1785225;79;20214;-73
2021/03/18 07:44:01;;;;;;;;;;;;;;;1.20;82.23;99483.06;1785833;80;23164;-73
2021/03/18 07:46:29;;;;;;;;;;;;;;;1.25;82.20;99481.49;1784655;80;21777;-71
2021/03/18 07:49:02;;;;;;;;;;;;;;;1.26;82.13;99480.59;1784348;79;20218;-72
2021/03/18 07:51:29;;;;;;;;;;;;;;;1.30;82.11;99483.39;1774769;79;20250;-71
2021/03/18 07:53:58;;;;;;;;;;;;;;;1.38;82.14;99481.20;1760590;80;20413;-72
2021/03/18 07:56:26;;;;;;;;;;;;;;;1.45;82.11;99481.25;1775555;79;22065;-73
2021/03/18 07:58:54;;;;;;;;;;;;;;;1.50;81.94;99475.30;1742851;80;21392;-71
2021/03/18 08:01:35;;;;;;;;;;;;;;;1.55;81.86;99482.87;1769896;79;20417;-74
2021/03/18 08:04:04;;;;;;;;;;;;;;;1.61;81.81;99474.69;1761656;80;20238;-73
2021/03/18 08:06:45;;;;;;;;;;;;;;;1.70;81.84;99476.31;1748046;80;20199;-75
2021/03/18 08:09:28;;;;;;;;;;;;;;;1.82;81.73;99478.66;1777062;79;21890;-74
2021/03/18 08:11:56;;;;;;;;;;;;;;;1.85;81.51;99473.30;1759502;79;20342;-73
2021/03/18 08:14:24;;;;;;;;;;;;;;;1.90;81.27;99475.63;1755456;80;20499;-75
2021/03/18 08:16:52;;;;;;;;;;;;;;;1.91;81.02;99472.92;1723456;81;21283;-76
2021/03/18 08:19:20;;;;;;;;;;;;;;;1.98;80.91;99470.81;1768705;80;20244;-75
2021/03/18 08:21:52;;;;;;;;;;;;;;;2.05;80.67;99469.53;1785376;79;21903;-75
2021/03/18 08:24:29;;;;;;;;;;;;;;;2.08;80.24;99473.25;1757526;80;20232;-73
2021/03/18 08:26:58;;;;;;;;;;;;;;;2.08;79.87;99475.85;1767152;79;20222;-73
2021/03/18 08:29:26;;;;;;;;;;;;;;;2.13;79.67;99476.44;1783778;79;20477;-73
2021/03/18 08:31:56;;;;;;;;;;;;;;;2.12;79.27;99473.42;1756736;80;20226;-72
2021/03/18 08:34:43;;;;;;;;;;;;;;;2.15;79.18;99477.17;1765649;79;22192;-72
2021/03/18 08:37:10;;;;;;;;;;;;;;;2.24;79.19;99477.94;1736396;79;20829;-73
2021/03/18 08:39:50;;;;;;;;;;;;;;;2.37;79.12;99465.47;1780624;79;20222;-75
2021/03/18 08:42:33;;;;;;;;;;;;;;;2.49;79.03;99468.63;1769620;80;20220;-74
2021/03/18 08:45:03;;;;;;;;;;;;;;;2.62;78.84;99467.44;1780228;79;20247;-73
2021/03/18 08:47:36;;;;;;;;;;;;;;;2.72;78.68;99469.38;1783087;80;22119;-75
2021/03/18 08:50:07;;;;;;;;;;;;;;;2.82;78.47;99470.95;1783519;79;20398;-76
2021/03/18 08:52:39;;;;;;;;;;;;;;;2.87;78.16;99467.11;1784761;79;20223;-76
2021/03/18 08:55:12;;;;;;;;;;;;;;;2.96;78.02;99474.00;1776828;79;20485;-75
2021/03/18 08:57:39;;;;;;;;;;;;;;;2.97;77.48;99475.20;1774297;80;20235;-73
2021/03/18 09:00:16;;;;;;;;;;;;;;;3.01;77.34;99485.00;1765794;79;22965;-72
2021/03/18 09:02:45;;;;;;;;;;;;;;;3.04;77.00;99485.63;1747796;80;20293;-72
2021/03/18 09:05:17;;;;;;;;;;;;;;;3.02;76.51;99484.90;1779648;80;20242;-72
2021/03/18 09:08:06;;;;;;;;;;;;;;;2.98;76.18;99485.17;1755742;80;20239;-72
2021/03/18 09:10:39;;;;;;;;;;;;;;;2.99;76.30;99478.58;1762990;80;20222;-72
2021/03/18 09:13:20;;;;;;;;;;;;;;;3.05;76.01;99483.86;1786466;78;22015;-73
2021/03/18 09:16:04;;;;;;;;;;;;;;;3.02;75.60;99485.37;1797866;78;20812;-72
2021/03/18 09:18:38;;;;;;;;;;;;;;;2.98;75.31;99490.39;1803329;79;20489;-75
2021/03/18 09:21:19;;;;;;;;;;;;;;;2.97;75.18;99484.80;1793693;77;20487;-74
2021/03/18 09:23:49;;;;;;;;;;;;;;;2.97;75.17;99490.02;1776312;79;20219;-74
2021/03/18 09:26:20;;;;;;;;;;;;;;;3.04;75.32;99495.23;1787251;78;22024;-73
2021/03/18 09:28:54;;;;;;;;;;;;;;;3.07;75.04;99493.26;1781499;79;21170;-72
2021/03/18 09:31:28;;;;;;;;;;;;;;;3.09;75.12;99497.10;1784687;79;20474;-72
2021/03/18 09:33:59;;;;;;;;;;;;;;;3.16;75.14;99491.37;1801078;78;20512;-73
2021/03/18 09:36:35;;;;;;;;;;;;;;;3.23;75.02;99494.45;1789851;78;20227;-71
2021/03/18 09:39:18;;;;;;;;;;;;;;;3.20;74.29;99493.81;1793914;79;22511;-72
2021/03/18 09:42:01;;;;;;;;;;;;;;;3.16;74.35;99495.76;1794419;78;20384;-78
2021/03/18 09:44:38;;;;;;;;;;;;;;;3.16;74.00;99487.46;1771850;79;20261;-71
2021/03/18 09:47:16;;;;;;;;;;;;;;;3.20;73.79;99494.66;1796429;78;20243;-72
2021/03/18 09:49:52;;;;;;;;;;;;;;;3.18;73.59;99493.05;1793687;79;20497;-71
2021/03/18 09:52:27;;;;;;;;;;;;;;;3.21;73.78;99492.88;1786578;79;21901;-74
2021/03/18 09:55:03;;;;;;;;;;;;;;;3.27;73.59;99497.69;1779231;79;20709;-73
2021/03/18 09:57:44;;;;;;;;;;;;;;;3.32;73.38;99496.95;1778073;79;20222;-71
2021/03/18 10:00:26;;;;;;;;;;;;;;;3.32;72.87;99500.39;1808780;78;20536;-73
2021/03/18 10:03:00;;;;;;;;;;;;;;;3.31;72.95;99505.25;1792730;78;20244;-73
2021/03/18 10:05:45;;;;;;;;;;;;;;;3.47;73.42;99504.25;1737901;79;22713;-72
2021/03/18 10:08:19;;;;;;;;;;;;;;;3.64;73.17;99501.40;1773333;79;20307;-73
2021/03/18 10:11:07;;;;;;;;;;;;;;;3.81;73.22;99506.37;1778035;79;20400;-71
2021/03/18 10:13:40;;;;;;;;;;;;;;;4.00;72.89;99506.84;1784328;79;20255;-71
2021/03/18 10:16:17;;;;;;;;;;;;;;;4.11;72.29;99504.81;1763418;79;20814;-72
2021/03/18 10:19:15;;;;;;;;;;;;;;;4.23;72.24;99501.84;1756642;80;21195;-73
2021/03/18 10:25:23;;;;;;;;;;;;;;;4.52;71.52;99515.09;1777088;79;20290;-72
2021/03/18 10:28:14;;;;;;;;;;;;;;;4.63;70.78;99508.28;1751787;81;20492;-71
2021/03/18 10:30:50;;;;;;;;;;;;;;;4.65;70.53;99505.12;1780510;79;20220;-72
2021/03/18 10:33:25;;;;;;;;;;;;;;;4.81;70.50;99507.86;1768363;80;22071;-72
2021/03/18 10:36:06;;;;;;;;;;;;;;;4.97;69.66;99508.11;1737513;80;20479;-71
2021/03/18 10:38:44;;;;;;;;;;;;;;;4.96;68.91;99507.27;1748726;80;20234;-71
2021/03/18 10:41:26;;;;;;;;;;;;;;;4.99;68.78;99510.97;1779723;80;20233;-72
2021/03/18 10:44:01;;;;;;;;;;;;;;;5.09;68.68;99515.09;1765489;80;20425;-71
2021/03/18 10:46:33;;;;;;;;;;;;;;;5.33;68.96;99510.75;1753315;80;21998;-72
2021/03/18 10:49:07;;;;;;;;;;;;;;;5.53;68.74;99506.69;1773999;79;20391;-71
2021/03/18 10:51:48;;;;;;;;;;;;;;;5.70;68.27;99508.92;1785481;79;20273;-72
2021/03/18 10:54:22;;;;;;;;;;;;;;;5.94;67.99;99514.17;1782653;79;20221;-72
2021/03/18 10:56:57;;;;;;;;;;;;;;;6.21;67.24;99508.66;1778827;79;20235;-73
2021/03/18 10:59:27;;;;;;;;;;;;;;;6.41;66.66;99509.78;1782049;80;22039;-72
2021/03/18 11:02:12;;;;;;;;;;;;;;;6.63;66.02;99512.06;1798899;79;20655;-73
2021/03/18 11:04:58;;;;;;;;;;;;;;;6.83;65.38;99508.73;1728458;81;20225;-72
2021/03/18 11:07:32;;;;;;;;;;;;;;;6.90;64.26;99508.63;1764751;80;20268;-72
2021/03/18 11:10:13;;;;;;;;;;;;;;;7.07;64.29;99510.77;1780186;79;20286;-70
2021/03/18 11:12:47;;;;;;;;;;;;;;;7.21;63.40;99504.42;1753093;79;22247;-72
2021/03/18 11:15:23;;;;;;;;;;;;;;;7.35;62.75;99501.55;1785028;79;20443;-71
2021/03/18 11:18:09;;;;;;;;;;;;;;;7.52;61.43;99504.59;1745706;80;20214;-72
2021/03/18 11:20:42;;;;;;;;;;;;;;;7.40;59.01;99502.00;1779198;80;20233;-72
2021/03/18 11:23:32;;;;;;;;;;;;;;;7.29;60.42;99498.08;1749227;80;20230;-71
2021/03/18 11:26:11;;;;;;;;;;;;;;;7.47;60.77;99493.16;1777803;80;22920;-71
2021/03/18 11:28:55;;;;;;;;;;;;;;;7.74;60.69;99495.34;1771934;80;21226;-72
2021/03/18 11:31:24;;;;;;;;;;;;;;;7.79;58.53;99501.52;1759533;80;20228;-74
2021/03/18 11:34:01;;;;;;;;;;;;;;;7.69;58.54;99492.23;1705389;80;21356;-73
2021/03/18 11:36:30;;;;;;;;;;;;;;;7.58;58.28;99498.85;1780322;79;20410;-74
2021/03/18 11:39:02;;;;;;;;;;;;;;;7.45;58.39;99495.08;1728612;80;22071;-73
2021/03/18 11:41:32;;;;;;;;;;;;;;;7.24;57.57;99502.02;1754061;80;20897;-73
2021/03/18 11:44:02;;;;;;;;;;;;;;;6.78;57.32;99501.23;1777779;79;20266;-74
2021/03/18 11:46:38;;;;;;;;;;;;;;;6.33;58.37;99500.81;1741894;80;20469;-74
2021/03/18 11:49:14;;;;;;;;;;;;;;;6.04;58.78;99501.22;1752581;79;20229;-73
2021/03/18 11:51:54;;;;;;;;;;;;;;;5.90;59.92;99511.88;1760858;80;22094;-73
2021/03/18 11:54:29;;;;;;;;;;;;;;;6.01;60.55;99499.67;1766441;79;21092;-73
2021/03/18 11:56:57;;;;;;;;;;;;;;;6.28;61.89;99504.63;1736870;80;20140;-72
2021/03/18 11:59:29;;;;;;;;;;;;;;;6.62;61.81;99497.28;1754127;81;21693;-74
2021/03/18 12:02:02;;;;;;;;;;;;;;;6.83;61.42;99495.13;1757584;80;20209;-73
2021/03/18 12:04:45;;;;;;;;;;;;;;;6.97;61.04;99497.18;1755994;80;21856;-73
2021/03/18 12:07:14;;;;;;;;;;;;;;;7.11;60.29;99498.23;1758858;80;20414;-72
2021/03/18 12:09:46;;;;;;;;;;;;;;;7.26;60.51;99495.71;1732767;80;20284;-71
2021/03/18 12:12:18;;;;;;;;;;;;;;;7.50;60.44;99497.31;1753987;80;21348;-72
2021/03/18 12:14:50;;;;;;;;;;;;;;;7.69;57.70;99494.39;1779458;79;20302;-74
2021/03/18 12:17:18;;;;;;;;;;;;;;;7.78;57.04;99501.17;1777779;79;22200;-73
2021/03/18 12:19:48;;;;;;;;;;;;;;;7.91;57.57;99500.06;1747869;78;20276;-73
2021/03/18 12:22:15;;;;;;;;;;;;;;;8.06;56.40;99505.83;1787407;78;20214;-72
2021/03/18 12:24:43;;;;;;;;;;;;;;;8.22;55.98;99500.98;1770253;80;20546;-72
2021/03/18 12:27:11;;;;;;;;;;;;;;;8.37;56.86;99499.36;1768707;80;20214;-73
2021/03/18 12:29:38;;;;;;;;;;;;;;;8.55;54.96;99499.95;1762749;80;22079;-74
2021/03/18 12:32:05;;;;;;;;;;;;;;;8.70;55.15;99494.36;1775773;79;20376;-74
2021/03/18 12:34:33;;;;;;;;;;;;;;;8.88;55.41;99502.84;1764454;79;20566;-73
2021/03/18 12:37:01;;;;;;;;;;;;;;;9.08;53.28;99504.23;1745032;80;20300;-73
2021/03/18 12:39:28;;;;;;;;;;;;;;;8.92;53.15;99499.92;1775866;79;20290;-74
2021/03/18 12:41:55;;;;;;;;;;;;;;;8.88;53.67;99497.56;1767960;80;21907;-73
2021/03/18 12:44:23;;;;;;;;;;;;;;;8.96;53.91;99497.36;1775988;79;20389;-72
2021/03/18 12:46:50;;;;;;;;;;;;;;;9.06;53.94;99497.75;1781041;80;20231;-75
2021/03/18 12:49:19;;;;;;;;;;;;;;;9.14;53.78;99493.97;1763063;79;20464;-75
2021/03/18 12:51:46;;;;;;;;;;;;;;;9.15;52.06;99496.11;1762764;80;20260;-73
2021/03/18 12:54:14;;;;;;;;;;;;;;;8.80;51.14;99493.92;1765220;79;22292;-72
2021/03/18 12:56:42;;;;;;;;;;;;;;;8.34;50.99;99504.38;1758222;80;20242;-75
2021/03/18 12:59:09;;;;;;;;;;;;;;;7.95;51.80;99504.09;1771237;80;20218;-75
2021/03/18 13:01:36;;;;;;;;;;;;;;;7.63;51.64;99498.02;1775088;80;20923;-73
2021/03/18 13:04:06;;;;;;;;;;;;;;;7.39;52.85;99498.19;1769225;79;20221;-76
2021/03/18 13:06:33;;;;;;;;;;;;;;;7.28;53.57;99501.67;1758732;78;21828;-77
2021/03/18 13:09:01;;;;;;;;;;;;;;;7.17;53.85;99503.00;1773933;80;20222;-75
2021/03/18 13:11:30;;;;;;;;;;;;;;;7.10;54.24;99504.44;1773077;79;20240;-78
2021/03/18 13:13:58;;;;;;;;;;;;;;;7.11;55.02;99503.00;1754733;80;20305;-77
2021/03/18 13:16:26;;;;;;;;;;;;;;;7.18;55.68;99503.36;1768222;80;20266;-77
2021/03/18 13:18:53;;;;;;;;;;;;;;;7.23;55.58;99506.44;1778367;79;22499;-76
2021/03/18 13:21:21;;;;;;;;;;;;;;;7.13;55.00;99502.39;1772405;80;20396;-77
2021/03/18 13:23:48;;;;;;;;;;;;;;;7.00;55.41;99506.95;1784110;80;20219;-76
2021/03/18 13:26:15;;;;;;;;;;;;;;;7.00;55.89;99510.05;1760167;80;20485;-76